createdAt,value
2022-12-03T00:03:24.959Z,101683.91
2022-12-03T00:08:28.572Z,101677.84
2022-12-03T00:13:32.145Z,101666.56
2022-12-03T00:18:37.319Z,101665.69
2022-12-03T00:23:42.415Z,101660.56
2022-12-03T00:28:46.221Z,101647.59
2022-12-03T00:33:51.483Z,101644.13
2022-12-03T00:38:55.098Z,101649.34
2022-12-03T00:43:58.635Z,101643.31
2022-12-03T00:49:03.833Z,101663.28
2022-12-03T00:54:07.397Z,101665.03
2022-12-03T00:59:10.951Z,101651.13
2022-12-03T01:04:16.211Z,101648.56
2022-12-03T01:09:19.951Z,101645.09
2022-12-03T01:14:23.711Z,101643.34
2022-12-03T01:19:28.929Z,101645.94
2022-12-03T01:24:32.477Z,101640.75
2022-12-03T01:29:36.042Z,101634.66
2022-12-03T01:34:41.266Z,101631.19
2022-12-03T01:39:45.024Z,101629.47
2022-12-03T01:44:51.618Z,101621.59
2022-12-03T01:50:00.861Z,101621.59
2022-12-03T01:55:08.276Z,101631.16
2022-12-03T02:00:15.391Z,101616.38
2022-12-03T02:05:23.289Z,101617.25
2022-12-03T02:10:29.013Z,101606.00
2022-12-03T02:15:32.667Z,101611.22
2022-12-03T02:20:46.742Z,101611.25
2022-12-03T02:25:52.930Z,101626.84
2022-12-03T02:30:56.929Z,101632.94
2022-12-03T02:36:03.560Z,101630.34
2022-12-03T02:41:12.977Z,101625.97
2022-12-03T02:46:16.601Z,101633.75
2022-12-03T02:51:20.202Z,101630.19
2022-12-03T02:56:29.444Z,101627.56
2022-12-03T03:01:33.464Z,101632.88
2022-12-03T03:06:37.260Z,101612.94
2022-12-03T03:11:42.487Z,101623.28
2022-12-03T03:16:46.089Z,101623.22
2022-12-03T03:21:49.777Z,101628.38
2022-12-03T03:26:55.381Z,101625.78
2022-12-03T03:32:00.315Z,101621.47
2022-12-03T03:37:03.978Z,101631.78
2022-12-03T03:42:09.306Z,101628.25
2022-12-03T03:47:13.910Z,101625.63
2022-12-03T03:52:18.013Z,101625.63
2022-12-03T03:57:23.430Z,101621.25
2022-12-03T04:02:28.511Z,101609.13
2022-12-03T04:07:32.183Z,101608.22
2022-12-03T04:12:38.299Z,101613.59
2022-12-03T04:17:41.949Z,101601.97
2022-12-03T04:22:45.493Z,101614.03
2022-12-03T04:27:50.688Z,101620.97
2022-12-03T04:32:54.309Z,101621.00
2022-12-03T04:37:57.855Z,101613.97
2022-12-03T04:43:04.107Z,101623.41
2022-12-03T04:48:07.822Z,101614.03
2022-12-03T04:53:11.456Z,101620.13
2022-12-03T04:58:16.741Z,101611.41
2022-12-03T05:03:25.794Z,101617.41
2022-12-03T05:08:29.565Z,101617.34
2022-12-03T05:13:34.796Z,101618.22
2022-12-03T05:18:39.099Z,101629.44
2022-12-03T05:23:42.686Z,101627.66
2022-12-03T05:28:47.926Z,101610.44
2022-12-03T05:33:51.505Z,101618.91
2022-12-03T05:38:55.071Z,101622.34
2022-12-03T05:44:15.087Z,101627.56
2022-12-03T05:49:22.560Z,101624.75
2022-12-03T05:54:26.107Z,101617.75
2022-12-03T05:59:31.344Z,101614.38
2022-12-03T06:04:34.880Z,101611.88
2022-12-03T06:09:38.429Z,101612.75
2022-12-03T06:14:43.624Z,101611.00
2022-12-03T06:19:47.254Z,101612.66
2022-12-03T06:24:50.918Z,101597.97
2022-12-03T06:29:56.182Z,101591.91
2022-12-03T06:34:59.733Z,101586.66
2022-12-03T06:40:03.448Z,101583.09
2022-12-03T06:45:09.356Z,101578.81
2022-12-03T06:50:13.292Z,101575.28
2022-12-03T06:55:16.964Z,101591.66
2022-12-03T07:00:23.129Z,101580.47
2022-12-03T07:05:26.676Z,101583.78
2022-12-03T07:10:30.365Z,101587.50
2022-12-03T07:15:35.593Z,101584.81
2022-12-03T07:20:39.146Z,101589.09
2022-12-03T07:25:42.658Z,101591.78
2022-12-03T07:30:47.889Z,101581.47
2022-12-03T07:35:51.448Z,101577.00
2022-12-03T07:40:54.994Z,101577.13
2022-12-03T07:46:00.222Z,101584.00
2022-12-03T07:51:03.814Z,101596.19
2022-12-03T07:56:08.253Z,101586.88
2022-12-03T08:01:13.624Z,101588.69
2022-12-03T08:06:17.249Z,101591.34
2022-12-03T08:11:20.792Z,101576.63
2022-12-03T08:16:26.664Z,101570.41
2022-12-03T08:21:35.188Z,101559.19
2022-12-03T08:26:38.748Z,101551.38
2022-12-03T08:31:48.184Z,101548.00
2022-12-03T08:36:56.854Z,101555.66
2022-12-03T08:42:13.684Z,101557.53
2022-12-03T08:47:22.446Z,101546.50
2022-12-03T08:52:32.276Z,101557.78
2022-12-03T08:57:36.594Z,101549.09
2022-12-03T09:02:46.896Z,101530.06
2022-12-03T09:07:50.575Z,101528.28
2022-12-03T09:12:54.956Z,101529.19
2022-12-03T09:18:00.158Z,101513.72
2022-12-03T09:23:04.140Z,101514.66
2022-12-03T09:28:07.684Z,101500.81
2022-12-03T09:33:13.750Z,101496.50
2022-12-03T09:38:17.325Z,101496.56
2022-12-03T09:43:21.462Z,101508.69
2022-12-03T09:48:26.680Z,101496.56
2022-12-03T09:53:31.410Z,101500.94
2022-12-03T09:58:35.166Z,101487.97
2022-12-03T10:03:45.598Z,101487.13
2022-12-03T10:08:50.027Z,101479.28
2022-12-03T10:13:55.947Z,101488.00
2022-12-03T10:19:01.969Z,101472.41
2022-12-03T10:24:26.496Z,101465.50
2022-12-03T10:29:34.308Z,101478.50
2022-12-03T10:34:41.313Z,101480.22
2022-12-03T10:39:56.560Z,101474.19
2022-12-03T10:45:19.440Z,101476.78
2022-12-03T10:50:24.646Z,101474.16
2022-12-03T10:55:29.754Z,101443.03
2022-12-03T11:00:33.288Z,101444.81
2022-12-03T11:05:39.285Z,101458.59
2022-12-03T11:10:43.072Z,101459.47
2022-12-03T11:15:46.862Z,101472.50
2022-12-03T11:21:13.288Z,101469.91
2022-12-03T11:26:19.560Z,101450.00
2022-12-03T11:31:35.757Z,101457.78
2022-12-03T11:37:18.867Z,101457.78
2022-12-03T11:42:41.299Z,101460.38
2022-12-03T11:47:46.899Z,101454.31
2022-12-03T11:52:56.349Z,101452.59
2022-12-03T11:58:00.944Z,101463.88
2022-12-03T12:03:04.635Z,101456.91
2022-12-03T12:08:19.801Z,101441.34
2022-12-03T12:13:50.716Z,101437.03
2022-12-03T12:18:55.736Z,101445.66
2022-12-03T12:24:34.520Z,101438.75
2022-12-03T12:29:39.545Z,101425.75
2022-12-03T12:34:45.134Z,101424.88
2022-12-03T12:39:53.445Z,101419.69
2022-12-03T12:45:01.362Z,101424.91
2022-12-03T12:50:11.639Z,101414.47
2022-12-03T12:55:17.079Z,101428.34
2022-12-03T13:00:22.892Z,101415.34
2022-12-03T13:05:26.617Z,101423.97
2022-12-03T13:10:41.500Z,101435.28
2022-12-03T13:15:50.429Z,101431.81
2022-12-03T13:20:54.624Z,101444.78
2022-12-03T13:26:13.159Z,101438.72
2022-12-03T13:31:28.259Z,101437.81
2022-12-03T13:36:41.295Z,101448.25
2022-12-03T13:41:46.994Z,101433.53
2022-12-03T13:46:50.544Z,101440.47
2022-12-03T13:51:54.134Z,101438.78
2022-12-03T13:56:59.323Z,101437.00
2022-12-03T14:02:02.925Z,101437.00
2022-12-03T14:07:06.801Z,101433.50
2022-12-03T14:12:12.008Z,101432.66
2022-12-03T14:17:15.654Z,101441.31
2022-12-03T14:22:19.208Z,101443.06
2022-12-03T14:27:25.055Z,101443.84
2022-12-03T14:32:28.684Z,101445.56
2022-12-03T14:37:32.935Z,101448.16
2022-12-03T14:42:38.381Z,101464.63
2022-12-03T14:47:41.904Z,101461.13
2022-12-03T14:52:45.470Z,101459.41
2022-12-03T14:57:50.640Z,101459.41
2022-12-03T15:02:54.236Z,101453.34
2022-12-03T15:07:57.953Z,101459.41
2022-12-03T15:13:03.203Z,101458.56
2022-12-03T15:18:06.839Z,101456.84
2022-12-03T15:23:14.293Z,101462.94
2022-12-03T15:28:19.947Z,101451.69
2022-12-03T15:33:23.515Z,101461.25
2022-12-03T15:38:27.056Z,101462.94
2022-12-03T15:43:32.251Z,101456.91
2022-12-03T15:48:35.780Z,101465.56
2022-12-03T15:53:39.377Z,101453.47
2022-12-03T15:58:44.628Z,101443.09
2022-12-03T16:03:48.197Z,101447.41
2022-12-03T16:08:51.803Z,101453.47
2022-12-03T16:13:57.087Z,101454.31
2022-12-03T16:19:00.706Z,101461.19
2022-12-03T16:24:04.283Z,101464.69
2022-12-03T16:29:09.491Z,101454.31
2022-12-03T16:34:13.053Z,101458.66
2022-12-03T16:39:17.419Z,101460.44
2022-12-03T16:44:22.648Z,101453.47
2022-12-03T16:49:26.245Z,101441.38
2022-12-03T16:54:29.779Z,101442.25
2022-12-03T16:59:34.987Z,101434.44
2022-12-03T17:04:38.559Z,101437.91
2022-12-03T17:09:42.136Z,101443.97
2022-12-03T17:14:47.397Z,101444.84
2022-12-03T17:19:51.128Z,101430.97
2022-12-03T17:24:57.891Z,101425.75
2022-12-03T17:30:05.429Z,101419.69
2022-12-03T17:35:10.871Z,101415.34
2022-12-03T17:40:15.641Z,101415.34
2022-12-03T17:45:20.936Z,101399.72
2022-12-03T17:50:24.518Z,101391.00
2022-12-03T17:55:38.322Z,101390.13
2022-12-03T18:00:48.072Z,101390.97
2022-12-03T18:05:51.643Z,101395.34
2022-12-03T18:10:55.217Z,101399.72
2022-12-03T18:16:00.477Z,101403.97
2022-12-03T18:21:04.251Z,101417.91
2022-12-03T18:26:08.035Z,101418.75
2022-12-03T18:31:15.453Z,101404.84
2022-12-03T18:36:22.962Z,101424.81
2022-12-03T18:41:26.764Z,101405.78
2022-12-03T18:47:02.068Z,101399.69
2022-12-03T18:51:59.500Z,101381.44
2022-12-03T18:57:03.347Z,101366.66
2022-12-03T19:02:11.614Z,101365.75
2022-12-03T19:07:16.769Z,101359.66
2022-12-03T19:12:20.356Z,101357.88
2022-12-03T19:17:25.560Z,101348.34
2022-12-03T19:22:29.095Z,101337.97
2022-12-03T19:27:32.951Z,101331.84
2022-12-03T19:32:38.227Z,101318.78
2022-12-03T19:37:41.865Z,101311.84
2022-12-03T19:42:45.508Z,101303.09
2022-12-03T19:47:50.834Z,101298.66
2022-12-03T19:52:54.360Z,101284.81
2022-12-03T19:57:58.014Z,101274.41
2022-12-03T20:03:03.445Z,101253.63
2022-12-03T20:08:08.347Z,101259.28
2022-12-03T20:13:11.970Z,101244.72
2022-12-03T20:18:17.141Z,101255.09
2022-12-03T20:23:20.691Z,101239.34
2022-12-03T20:28:24.281Z,101221.06
2022-12-03T20:33:29.736Z,101212.44
2022-12-03T20:38:33.366Z,101210.78
2022-12-03T20:43:37.252Z,101209.00
2022-12-03T20:48:43.444Z,101212.44
2022-12-03T20:53:47.351Z,101197.63
2022-12-03T20:58:51.264Z,101186.38
2022-12-03T21:03:57.644Z,101178.47
2022-12-03T21:09:00.651Z,101179.50
2022-12-03T21:14:05.330Z,101176.97
2022-12-03T21:19:10.523Z,101165.56
2022-12-03T21:24:14.253Z,101143.72
2022-12-03T21:29:17.960Z,101134.09
2022-12-03T21:34:24.047Z,101142.09
2022-12-03T21:39:27.613Z,101145.56
2022-12-03T21:44:31.315Z,101140.28
2022-12-03T21:49:36.595Z,101129.75
2022-12-03T21:54:40.250Z,101109.84
2022-12-03T21:59:43.818Z,101096.09
2022-12-03T22:04:52.622Z,101104.69
2022-12-03T22:09:56.381Z,101087.22
2022-12-03T22:15:00.155Z,101087.09
2022-12-03T22:20:06.675Z,101082.69
2022-12-03T22:25:10.447Z,101081.75
2022-12-03T22:30:14.313Z,101084.38
2022-12-03T22:35:19.599Z,101080.88
2022-12-03T22:40:23.177Z,101073.91
2022-12-03T22:45:26.757Z,101070.41
2022-12-03T22:50:32.011Z,101066.94
2022-12-03T22:55:35.592Z,101062.16
2022-12-03T23:00:40.598Z,101063.50
2022-12-03T23:05:46.026Z,101070.44
2022-12-03T23:10:51.351Z,101067.09
2022-12-03T23:15:54.985Z,101067.25
2022-12-03T23:21:00.661Z,101077.78
2022-12-03T23:26:05.659Z,101084.75
2022-12-03T23:31:18.216Z,101085.63
2022-12-03T23:36:24.776Z,101102.16
2022-12-03T23:41:28.525Z,101111.03
2022-12-03T23:46:32.149Z,101102.38
2022-12-03T23:51:37.509Z,101109.19
2022-12-03T23:56:41.049Z,101092.66
